Terminal Aerodrome Forecast
Issued by NWS Rapid City, SD

Home | Current Version | Previous Version | Text Only | Print | Product List | Glossary On
Versions: 1 2 3 4 5 6 7 8 9 10 11 12 13 14 15 16 17 18
000
FTUS43 KUNR 252300 CCA
TAFRAP
TAF COR
KRAP 252336Z 2600/2624 35020KT P6SM OVC014
      TEMPO 2600/2602 5SM -SN BLSN OVC008
     FM260200 34013KT P6SM OVC012
      TEMPO 2610/2614 1SM BR=

USA.gov is the U.S. government's official web portal to all federal, state and local government web resources and services.